createdAt,value
2019-05-29T00:08:08.269Z,92974.33
2019-05-29T00:18:41.481Z,92983.13
2019-05-29T00:29:14.757Z,92999.42
2019-05-29T00:39:47.497Z,92995.89
2019-05-29T00:50:21.078Z,92998.73
2019-05-29T01:00:54.772Z,92996.84
2019-05-29T01:11:28.239Z,92999.98
2019-05-29T01:22:03.997Z,92996.87
2019-05-29T01:32:37.647Z,92997.01
2019-05-29T01:43:11.385Z,92997.74
2019-05-29T01:53:45.051Z,93000.56
2019-05-29T02:04:19.770Z,93005.02
2019-05-29T02:14:53.249Z,93009.72
2019-05-29T02:25:26.341Z,93016.98
2019-05-29T02:35:59.861Z,93020.78
2019-05-29T02:46:33.415Z,93030.67
2019-05-29T02:57:07.002Z,93040.30
2019-05-29T03:07:40.337Z,93044.92
2019-05-29T03:18:13.769Z,93052.09
2019-05-29T03:28:47.511Z,93057.87
2019-05-29T03:39:20.861Z,93066.15
2019-05-29T03:49:53.513Z,93056.06
2019-05-29T04:00:32.010Z,93070.02
2019-05-29T04:11:02.451Z,93061.94
2019-05-29T04:21:38.635Z,93080.95
2019-05-29T04:32:11.545Z,93082.63
2019-05-29T04:42:45.153Z,93098.41
2019-05-29T04:53:18.523Z,93099.34
2019-05-29T05:03:52.282Z,93116.36
2019-05-29T05:14:25.685Z,93115.92
2019-05-29T05:24:59.156Z,93115.06
2019-05-29T05:35:32.737Z,93109.93
2019-05-29T05:46:06.277Z,93122.25
2019-05-29T05:56:39.778Z,93129.30
2019-05-29T06:07:13.351Z,93128.52
2019-05-29T06:18:04.659Z,93141.47
2019-05-29T06:28:21.610Z,93135.84
2019-05-29T06:38:55.265Z,93147.55
2019-05-29T06:49:28.722Z,93147.23
2019-05-29T07:00:01.479Z,93151.95
2019-05-29T07:10:36.355Z,93153.03
2019-05-29T07:21:09.498Z,93151.66
2019-05-29T07:31:43.175Z,93153.70
2019-05-29T07:42:16.922Z,93154.98
2019-05-29T07:52:50.719Z,93146.24
2019-05-29T08:03:23.632Z,93148.47
2019-05-29T08:13:56.370Z,93149.69
2019-05-29T08:24:30.129Z,93160.09
2019-05-29T08:35:03.735Z,93163.53
2019-05-29T08:45:36.688Z,93154.27
2019-05-29T08:56:10.298Z,93161.01
2019-05-29T09:06:44.722Z,93152.95
2019-05-29T09:17:18.513Z,93156.02
2019-05-29T09:27:52.034Z,93147.63
2019-05-29T09:38:25.099Z,93150.61
2019-05-29T09:49:01.484Z,93156.59
2019-05-29T09:59:34.044Z,93149.59
2019-05-29T10:10:06.855Z,93139.02
2019-05-29T10:20:40.345Z,93122.30
2019-05-29T10:31:14.005Z,93120.96
2019-05-29T10:41:48.641Z,93117.67
2019-05-29T10:52:22.396Z,93118.25
2019-05-29T11:02:57.724Z,93115.62
2019-05-29T11:13:31.663Z,93115.27
2019-05-29T11:24:04.335Z,93113.50
2019-05-29T11:34:37.288Z,93106.44
2019-05-29T11:45:10.948Z,93114.85
2019-05-29T11:55:44.433Z,93104.05
2019-05-29T12:06:17.891Z,93101.53
2019-05-29T12:16:51.772Z,93106.00
2019-05-29T12:27:25.209Z,93102.70
2019-05-29T12:37:59.422Z,93092.66
2019-05-29T12:48:32.448Z,93099.36
2019-05-29T12:59:05.110Z,93079.09
2019-05-29T13:09:38.761Z,93074.85
2019-05-29T13:20:20.958Z,93069.30
2019-05-29T13:30:47.349Z,93065.20
2019-05-29T13:41:20.730Z,93076.83
2019-05-29T13:51:54.246Z,93069.41
2019-05-29T14:02:27.770Z,93077.36
2019-05-29T14:13:01.356Z,93088.47
2019-05-29T14:23:35.019Z,93102.58
2019-05-29T14:34:09.488Z,93085.83
2019-05-29T14:44:43.142Z,93081.86
2019-05-29T14:55:18.215Z,93090.63
2019-05-29T15:05:50.775Z,93082.05
2019-05-29T15:16:24.317Z,93085.82
2019-05-29T15:26:57.969Z,93088.72
2019-05-29T15:37:31.469Z,93089.98
2019-05-29T15:48:05.118Z,93096.58
2019-05-29T15:58:38.737Z,93130.73
2019-05-29T16:09:12.160Z,93163.80
2019-05-29T16:19:45.735Z,93172.63
2019-05-29T16:30:20.027Z,93169.31
2019-05-29T16:40:53.350Z,93177.83
2019-05-29T16:51:26.083Z,93172.84
2019-05-29T17:01:59.643Z,93189.31
2019-05-29T17:12:33.297Z,93199.45
2019-05-29T17:23:06.861Z,93199.44
2019-05-29T17:33:39.613Z,93223.05
2019-05-29T17:44:13.272Z,93235.38
2019-05-29T17:54:46.812Z,93239.92
2019-05-29T18:05:20.698Z,93246.22
2019-05-29T18:15:54.306Z,93251.44
2019-05-29T18:26:45.947Z,93273.80
2019-05-29T18:37:02.694Z,93289.14
2019-05-29T18:47:36.329Z,93305.73
2019-05-29T18:58:09.153Z,93321.38
2019-05-29T19:08:42.622Z,93342.64
2019-05-29T19:19:16.212Z,93346.69
2019-05-29T19:29:49.040Z,93369.11
2019-05-29T19:40:22.441Z,93373.78
2019-05-29T19:50:56.073Z,93391.23
2019-05-29T20:01:34.171Z,93404.84
2019-05-29T20:12:05.207Z,93405.22
2019-05-29T20:22:39.088Z,93406.85
2019-05-29T20:33:12.894Z,93406.19
2019-05-29T20:43:46.673Z,93426.02
2019-05-29T20:54:20.332Z,93435.82
2019-05-29T21:04:53.161Z,93449.16
2019-05-29T21:15:27.543Z,93458.33
2019-05-29T21:26:00.918Z,93460.19
2019-05-29T21:36:34.297Z,93462.16
2019-05-29T21:47:07.920Z,93460.59
2019-05-29T21:57:43.929Z,93455.25
2019-05-29T22:08:16.236Z,93464.99
2019-05-29T22:18:48.978Z,93457.95
2019-05-29T22:29:22.710Z,93454.86
2019-05-29T22:39:57.336Z,93461.62
2019-05-29T22:50:30.966Z,93479.85
2019-05-29T23:01:04.431Z,93482.39
2019-05-29T23:11:37.907Z,93488.02
2019-05-29T23:22:12.584Z,93487.91
2019-05-29T23:32:45.480Z,93490.70
2019-05-29T23:43:18.761Z,93494.77
2019-05-29T23:53:51.552Z,93498.71
